sensor_id;sensor_type;location;lat;lon;timestamp;temperature;humidity
36322;DHT22;23564;48.290;11.460;2023-02-10T00:01:03;-3.70;99.90
36322;DHT22;23564;48.290;11.460;2023-02-10T00:03:28;-3.70;99.90
36322;DHT22;23564;48.290;11.460;2023-02-10T00:05:54;-3.70;99.90
36322;DHT22;23564;48.290;11.460;2023-02-10T00:08:20;-3.70;99.90
36322;DHT22;23564;48.290;11.460;2023-02-10T00:10:45;-3.70;99.90
36322;DHT22;23564;48.290;11.460;2023-02-10T00:13:11;-3.70;99.90
36322;DHT22;23564;48.290;11.460;2023-02-10T00:15:37;-3.70;99.90
36322;DHT22;23564;48.290;11.460;2023-02-10T00:18:02;-3.70;99.90
36322;DHT22;23564;48.290;11.460;2023-02-10T00:20:28;-3.70;99.90
36322;DHT22;23564;48.290;11.460;2023-02-10T00:22:54;-3.70;99.90
36322;DHT22;23564;48.290;11.460;2023-02-10T00:25:19;-3.70;99.90
36322;DHT22;23564;48.290;11.460;2023-02-10T00:27:45;-3.70;99.90
36322;DHT22;23564;48.290;11.460;2023-02-10T00:30:11;-3.70;99.90
36322;DHT22;23564;48.290;11.460;2023-02-10T00:32:36;-3.70;99.90
36322;DHT22;23564;48.290;11.460;2023-02-10T00:35:08;-3.70;99.90
36322;DHT22;23564;48.290;11.460;2023-02-10T00:37:34;-3.70;99.90
36322;DHT22;23564;48.290;11.460;2023-02-10T00:40:00;-3.70;99.90
36322;DHT22;23564;48.290;11.460;2023-02-10T00:42:25;-3.80;99.90
36322;DHT22;23564;48.290;11.460;2023-02-10T00:44:51;-3.80;99.90
36322;DHT22;23564;48.290;11.460;2023-02-10T00:47:16;-3.80;99.90
36322;DHT22;23564;48.290;11.460;2023-02-10T00:49:42;-3.90;99.90
36322;DHT22;23564;48.290;11.460;2023-02-10T00:52:08;-3.90;99.90
36322;DHT22;23564;48.290;11.460;2023-02-10T00:54:34;-3.90;99.90
36322;DHT22;23564;48.290;11.460;2023-02-10T00:56:59;-3.90;99.90
36322;DHT22;23564;48.290;11.460;2023-02-10T00:59:25;-3.90;99.90
36322;DHT22;23564;48.290;11.460;2023-02-10T01:01:50;-3.90;99.90
36322;DHT22;23564;48.290;11.460;2023-02-10T01:04:16;-3.90;99.90
36322;DHT22;23564;48.290;11.460;2023-02-10T01:06:42;-3.90;99.90
36322;DHT22;23564;48.290;11.460;2023-02-10T01:09:08;-3.90;99.90
36322;DHT22;23564;48.290;11.460;2023-02-10T01:11:33;-3.90;99.90
36322;DHT22;23564;48.290;11.460;2023-02-10T01:13:59;-4.00;99.90
36322;DHT22;23564;48.290;11.460;2023-02-10T01:16:24;-4.00;99.90
36322;DHT22;23564;48.290;11.460;2023-02-10T01:18:50;-3.90;99.90
36322;DHT22;23564;48.290;11.460;2023-02-10T01:21:17;-4.00;99.90
36322;DHT22;23564;48.290;11.460;2023-02-10T01:23:44;-4.00;99.90
36322;DHT22;23564;48.290;11.460;2023-02-10T01:26:10;-4.00;99.90
36322;DHT22;23564;48.290;11.460;2023-02-10T01:28:37;-4.00;99.90
36322;DHT22;23564;48.290;11.460;2023-02-10T01:31:12;-4.00;99.90
36322;DHT22;23564;48.290;11.460;2023-02-10T01:33:38;-4.10;99.90
36322;DHT22;23564;48.290;11.460;2023-02-10T01:36:05;-4.10;99.90
36322;DHT22;23564;48.290;11.460;2023-02-10T01:38:31;-4.10;99.90
36322;DHT22;23564;48.290;11.460;2023-02-10T01:40:56;-4.10;99.90
36322;DHT22;23564;48.290;11.460;2023-02-10T01:43:22;-4.10;99.90
36322;DHT22;23564;48.290;11.460;2023-02-10T01:45:47;-4.10;99.90
36322;DHT22;23564;48.290;11.460;2023-02-10T01:48:14;-4.10;99.90
36322;DHT22;23564;48.290;11.460;2023-02-10T01:50:53;-4.10;99.90
36322;DHT22;23564;48.290;11.460;2023-02-10T01:53:20;-4.10;99.90
36322;DHT22;23564;48.290;11.460;2023-02-10T01:55:50;-4.10;99.90
36322;DHT22;23564;48.290;11.460;2023-02-10T01:58:20;-4.10;99.90
36322;DHT22;23564;48.290;11.460;2023-02-10T02:00:46;-4.10;99.90
36322;DHT22;23564;48.290;11.460;2023-02-10T02:03:13;-4.10;99.90
36322;DHT22;23564;48.290;11.460;2023-02-10T02:05:40;-4.00;99.90
36322;DHT22;23564;48.290;11.460;2023-02-10T02:08:18;-4.00;99.90
36322;DHT22;23564;48.290;11.460;2023-02-10T02:11:11;-4.00;99.90
36322;DHT22;23564;48.290;11.460;2023-02-10T02:13:47;-4.00;99.90
36322;DHT22;23564;48.290;11.460;2023-02-10T02:18:59;-4.10;99.90
36322;DHT22;23564;48.290;11.460;2023-02-10T02:21:45;-4.10;99.90
36322;DHT22;23564;48.290;11.460;2023-02-10T02:24:21;-4.10;99.90
36322;DHT22;23564;48.290;11.460;2023-02-10T02:32:21;-4.30;99.90
36322;DHT22;23564;48.290;11.460;2023-02-10T02:35:12;-4.30;99.90
36322;DHT22;23564;48.290;11.460;2023-02-10T02:37:43;-4.30;99.90
36322;DHT22;23564;48.290;11.460;2023-02-10T02:40:11;-4.30;99.90
36322;DHT22;23564;48.290;11.460;2023-02-10T02:42:37;-4.30;99.90
36322;DHT22;23564;48.290;11.460;2023-02-10T02:45:12;-4.30;99.90
36322;DHT22;23564;48.290;11.460;2023-02-10T02:48:12;-4.30;99.90
36322;DHT22;23564;48.290;11.460;2023-02-10T02:50:49;-4.30;99.90
36322;DHT22;23564;48.290;11.460;2023-02-10T02:53:44;-4.30;99.90
36322;DHT22;23564;48.290;11.460;2023-02-10T02:58:51;-4.30;99.90
36322;DHT22;23564;48.290;11.460;2023-02-10T03:01:24;-4.20;99.90
36322;DHT22;23564;48.290;11.460;2023-02-10T03:03:54;-4.20;99.90
36322;DHT22;23564;48.290;11.460;2023-02-10T03:06:21;-4.30;99.90
36322;DHT22;23564;48.290;11.460;2023-02-10T03:08:47;-4.30;99.90
36322;DHT22;23564;48.290;11.460;2023-02-10T03:11:13;-4.30;99.90
36322;DHT22;23564;48.290;11.460;2023-02-10T03:13:38;-4.30;99.90
36322;DHT22;23564;48.290;11.460;2023-02-10T03:16:04;-4.30;99.90
36322;DHT22;23564;48.290;11.460;2023-02-10T03:18:30;-4.30;99.90
36322;DHT22;23564;48.290;11.460;2023-02-10T03:20:56;-4.30;99.90
36322;DHT22;23564;48.290;11.460;2023-02-10T03:23:21;-4.40;99.90
36322;DHT22;23564;48.290;11.460;2023-02-10T03:25:47;-4.40;99.90
36322;DHT22;23564;48.290;11.460;2023-02-10T03:28:12;-4.50;99.90
36322;DHT22;23564;48.290;11.460;2023-02-10T03:30:38;-4.40;99.90
36322;DHT22;23564;48.290;11.460;2023-02-10T03:33:04;-4.40;99.90
36322;DHT22;23564;48.290;11.460;2023-02-10T03:35:34;-4.40;99.90
36322;DHT22;23564;48.290;11.460;2023-02-10T03:38:00;-4.50;99.90
36322;DHT22;23564;48.290;11.460;2023-02-10T03:40:25;-4.50;99.90
36322;DHT22;23564;48.290;11.460;2023-02-10T03:42:51;-4.60;99.90
36322;DHT22;23564;48.290;11.460;2023-02-10T03:45:16;-4.60;99.90
36322;DHT22;23564;48.290;11.460;2023-02-10T03:47:42;-4.60;99.90
36322;DHT22;23564;48.290;11.460;2023-02-10T03:50:07;-4.60;99.90
36322;DHT22;23564;48.290;11.460;2023-02-10T03:52:33;-4.60;99.90
36322;DHT22;23564;48.290;11.460;2023-02-10T03:54:59;-4.60;99.90
36322;DHT22;23564;48.290;11.460;2023-02-10T03:57:24;-4.60;99.90
36322;DHT22;23564;48.290;11.460;2023-02-10T03:59:50;-4.60;99.90
36322;DHT22;23564;48.290;11.460;2023-02-10T04:02:15;-4.60;99.90
36322;DHT22;23564;48.290;11.460;2023-02-10T04:04:41;-4.60;99.90
36322;DHT22;23564;48.290;11.460;2023-02-10T04:07:06;-4.60;99.90
36322;DHT22;23564;48.290;11.460;2023-02-10T04:09:32;-4.60;99.90
36322;DHT22;23564;48.290;11.460;2023-02-10T04:11:58;-4.60;99.90
36322;DHT22;23564;48.290;11.460;2023-02-10T04:14:24;-4.60;99.90
36322;DHT22;23564;48.290;11.460;2023-02-10T04:16:50;-4.60;99.90
36322;DHT22;23564;48.290;11.460;2023-02-10T04:19:15;-4.60;99.90
36322;DHT22;23564;48.290;11.460;2023-02-10T04:21:41;-4.60;99.90
36322;DHT22;23564;48.290;11.460;2023-02-10T04:24:07;-4.60;99.90
36322;DHT22;23564;48.290;11.460;2023-02-10T04:26:32;-4.70;99.90
36322;DHT22;23564;48.290;11.460;2023-02-10T04:28:58;-4.70;99.90
36322;DHT22;23564;48.290;11.460;2023-02-10T04:31:23;-4.70;99.90
36322;DHT22;23564;48.290;11.460;2023-02-10T04:33:49;-4.70;99.90
36322;DHT22;23564;48.290;11.460;2023-02-10T04:36:14;-4.70;99.90
36322;DHT22;23564;48.290;11.460;2023-02-10T04:38:40;-4.70;99.90
36322;DHT22;23564;48.290;11.460;2023-02-10T04:41:05;-4.60;99.90
36322;DHT22;23564;48.290;11.460;2023-02-10T04:43:32;-4.70;99.90
36322;DHT22;23564;48.290;11.460;2023-02-10T04:45:57;-4.70;99.90
36322;DHT22;23564;48.290;11.460;2023-02-10T04:48:23;-4.60;99.90
36322;DHT22;23564;48.290;11.460;2023-02-10T04:50:49;-4.60;99.90
36322;DHT22;23564;48.290;11.460;2023-02-10T04:53:15;-4.60;99.90
36322;DHT22;23564;48.290;11.460;2023-02-10T04:55:41;-4.60;99.90
36322;DHT22;23564;48.290;11.460;2023-02-10T04:58:06;-4.60;99.90
36322;DHT22;23564;48.290;11.460;2023-02-10T05:00:32;-4.50;99.90
36322;DHT22;23564;48.290;11.460;2023-02-10T05:02:58;-4.60;99.90
36322;DHT22;23564;48.290;11.460;2023-02-10T05:05:24;-4.60;99.90
36322;DHT22;23564;48.290;11.460;2023-02-10T05:07:51;-4.60;99.90
36322;DHT22;23564;48.290;11.460;2023-02-10T05:10:17;-4.60;99.90
36322;DHT22;23564;48.290;11.460;2023-02-10T05:12:42;-4.60;99.90
36322;DHT22;23564;48.290;11.460;2023-02-10T05:15:08;-4.70;99.90
36322;DHT22;23564;48.290;11.460;2023-02-10T05:17:34;-4.70;99.90
36322;DHT22;23564;48.290;11.460;2023-02-10T05:20:00;-4.70;99.90
36322;DHT22;23564;48.290;11.460;2023-02-10T05:22:25;-4.70;99.90
36322;DHT22;23564;48.290;11.460;2023-02-10T05:24:55;-4.70;99.90
36322;DHT22;23564;48.290;11.460;2023-02-10T05:27:24;-4.70;99.90
36322;DHT22;23564;48.290;11.460;2023-02-10T05:29:49;-4.80;99.90
36322;DHT22;23564;48.290;11.460;2023-02-10T05:32:15;-4.80;99.90
36322;DHT22;23564;48.290;11.460;2023-02-10T05:34:40;-4.80;99.90
36322;DHT22;23564;48.290;11.460;2023-02-10T05:37:06;-4.80;99.90
36322;DHT22;23564;48.290;11.460;2023-02-10T05:39:32;-4.80;99.90
36322;DHT22;23564;48.290;11.460;2023-02-10T05:41:58;-4.80;99.90
36322;DHT22;23564;48.290;11.460;2023-02-10T05:44:25;-4.80;99.90
36322;DHT22;23564;48.290;11.460;2023-02-10T05:46:51;-4.80;99.90
36322;DHT22;23564;48.290;11.460;2023-02-10T05:49:17;-4.80;99.90
36322;DHT22;23564;48.290;11.460;2023-02-10T05:51:43;-4.90;99.90
36322;DHT22;23564;48.290;11.460;2023-02-10T05:54:09;-4.80;99.90
36322;DHT22;23564;48.290;11.460;2023-02-10T05:56:35;-4.90;99.90
36322;DHT22;23564;48.290;11.460;2023-02-10T05:59:01;-4.80;99.90
36322;DHT22;23564;48.290;11.460;2023-02-10T06:01:27;-4.80;99.90
36322;DHT22;23564;48.290;11.460;2023-02-10T06:03:52;-4.80;99.90
36322;DHT22;23564;48.290;11.460;2023-02-10T06:06:18;-4.80;99.90
36322;DHT22;23564;48.290;11.460;2023-02-10T06:08:43;-4.80;99.90
36322;DHT22;23564;48.290;11.460;2023-02-10T06:11:09;-4.80;99.90
36322;DHT22;23564;48.290;11.460;2023-02-10T06:13:35;-4.90;99.90
36322;DHT22;23564;48.290;11.460;2023-02-10T06:16:00;-4.80;99.90
36322;DHT22;23564;48.290;11.460;2023-02-10T06:18:27;-4.90;99.90
36322;DHT22;23564;48.290;11.460;2023-02-10T06:20:53;-4.80;99.90
36322;DHT22;23564;48.290;11.460;2023-02-10T06:23:18;-4.80;99.90
36322;DHT22;23564;48.290;11.460;2023-02-10T06:25:45;-4.80;99.90
36322;DHT22;23564;48.290;11.460;2023-02-10T06:28:10;-4.80;99.90
36322;DHT22;23564;48.290;11.460;2023-02-10T06:30:36;-4.80;99.90
36322;DHT22;23564;48.290;11.460;2023-02-10T06:33:02;-4.80;99.90
36322;DHT22;23564;48.290;11.460;2023-02-10T06:35:27;-4.80;99.90
36322;DHT22;23564;48.290;11.460;2023-02-10T06:37:53;-4.80;99.90
36322;DHT22;23564;48.290;11.460;2023-02-10T06:40:19;-4.80;99.90
36322;DHT22;23564;48.290;11.460;2023-02-10T06:42:45;-4.80;99.90
36322;DHT22;23564;48.290;11.460;2023-02-10T06:45:12;-4.70;99.90
36322;DHT22;23564;48.290;11.460;2023-02-10T06:47:37;-4.80;99.90
36322;DHT22;23564;48.290;11.460;2023-02-10T06:50:04;-4.70;99.90
36322;DHT22;23564;48.290;11.460;2023-02-10T06:52:30;-4.70;99.90
36322;DHT22;23564;48.290;11.460;2023-02-10T06:54:56;-4.70;99.90
36322;DHT22;23564;48.290;11.460;2023-02-10T06:57:22;-4.60;99.90
36322;DHT22;23564;48.290;11.460;2023-02-10T06:59:48;-4.60;99.90
36322;DHT22;23564;48.290;11.460;2023-02-10T07:02:13;-4.60;99.90
36322;DHT22;23564;48.290;11.460;2023-02-10T07:04:39;-4.60;99.90
36322;DHT22;23564;48.290;11.460;2023-02-10T07:07:05;-4.60;99.90
36322;DHT22;23564;48.290;11.460;2023-02-10T07:09:31;-4.50;99.90
36322;DHT22;23564;48.290;11.460;2023-02-10T07:11:57;-4.50;99.90
36322;DHT22;23564;48.290;11.460;2023-02-10T07:14:23;-4.50;99.90
36322;DHT22;23564;48.290;11.460;2023-02-10T07:16:49;-4.40;99.90
36322;DHT22;23564;48.290;11.460;2023-02-10T07:19:15;-4.30;99.90
36322;DHT22;23564;48.290;11.460;2023-02-10T07:21:40;-4.30;99.90
36322;DHT22;23564;48.290;11.460;2023-02-10T07:24:06;-4.20;99.90
36322;DHT22;23564;48.290;11.460;2023-02-10T07:26:32;-4.20;99.90
36322;DHT22;23564;48.290;11.460;2023-02-10T07:28:58;-4.20;99.90
36322;DHT22;23564;48.290;11.460;2023-02-10T07:31:23;-4.10;99.90
36322;DHT22;23564;48.290;11.460;2023-02-10T07:33:49;-4.10;99.90
36322;DHT22;23564;48.290;11.460;2023-02-10T07:36:14;-4.00;99.90
36322;DHT22;23564;48.290;11.460;2023-02-10T07:38:40;-4.00;99.90
36322;DHT22;23564;48.290;11.460;2023-02-10T07:41:06;-3.90;99.90
36322;DHT22;23564;48.290;11.460;2023-02-10T07:43:33;-3.90;99.90
36322;DHT22;23564;48.290;11.460;2023-02-10T07:45:58;-3.80;99.90
36322;DHT22;23564;48.290;11.460;2023-02-10T07:48:24;-3.80;99.90
36322;DHT22;23564;48.290;11.460;2023-02-10T07:50:50;-3.70;99.90
36322;DHT22;23564;48.290;11.460;2023-02-10T07:53:20;-3.70;99.90
36322;DHT22;23564;48.290;11.460;2023-02-10T07:55:46;-3.60;99.90
36322;DHT22;23564;48.290;11.460;2023-02-10T07:58:11;-3.50;99.90
36322;DHT22;23564;48.290;11.460;2023-02-10T08:00:37;-3.50;99.90
36322;DHT22;23564;48.290;11.460;2023-02-10T08:03:03;-3.50;99.90
36322;DHT22;23564;48.290;11.460;2023-02-10T08:05:28;-3.40;99.90
36322;DHT22;23564;48.290;11.460;2023-02-10T08:07:55;-3.30;99.90
36322;DHT22;23564;48.290;11.460;2023-02-10T08:10:21;-3.30;99.90
36322;DHT22;23564;48.290;11.460;2023-02-10T08:12:47;-3.30;99.90
36322;DHT22;23564;48.290;11.460;2023-02-10T08:15:13;-3.20;99.90
36322;DHT22;23564;48.290;11.460;2023-02-10T08:17:38;-3.10;99.90
36322;DHT22;23564;48.290;11.460;2023-02-10T08:20:07;-3.10;99.90
36322;DHT22;23564;48.290;11.460;2023-02-10T08:22:33;-3.00;99.90
36322;DHT22;23564;48.290;11.460;2023-02-10T08:25:00;-2.90;99.90
36322;DHT22;23564;48.290;11.460;2023-02-10T08:27:25;-2.90;99.90
36322;DHT22;23564;48.290;11.460;2023-02-10T08:29:51;-2.80;99.90
36322;DHT22;23564;48.290;11.460;2023-02-10T08:32:17;-2.80;99.90
36322;DHT22;23564;48.290;11.460;2023-02-10T08:34:45;-2.80;99.90
36322;DHT22;23564;48.290;11.460;2023-02-10T08:37:11;-2.70;99.90
36322;DHT22;23564;48.290;11.460;2023-02-10T08:39:36;-2.60;99.90
36322;DHT22;23564;48.290;11.460;2023-02-10T08:42:02;-2.60;99.90
36322;DHT22;23564;48.290;11.460;2023-02-10T08:44:27;-2.50;99.90
36322;DHT22;23564;48.290;11.460;2023-02-10T08:46:53;-2.40;1.00
36322;DHT22;23564;48.290;11.460;2023-02-10T08:49:19;-2.30;1.00
36322;DHT22;23564;48.290;11.460;2023-02-10T08:51:44;-2.20;1.00
36322;DHT22;23564;48.290;11.460;2023-02-10T08:54:10;-2.10;1.00
36322;DHT22;23564;48.290;11.460;2023-02-10T08:56:35;-2.00;1.00
36322;DHT22;23564;48.290;11.460;2023-02-10T08:59:01;-1.90;99.90
36322;DHT22;23564;48.290;11.460;2023-02-10T09:01:27;-1.90;99.90
36322;DHT22;23564;48.290;11.460;2023-02-10T09:03:54;-1.80;99.90
36322;DHT22;23564;48.290;11.460;2023-02-10T09:06:32;-1.70;99.90
36322;DHT22;23564;48.290;11.460;2023-02-10T09:08:59;-1.70;99.90
36322;DHT22;23564;48.290;11.460;2023-02-10T09:11:25;-1.60;99.90
36322;DHT22;23564;48.290;11.460;2023-02-10T09:13:51;-1.50;99.90
36322;DHT22;23564;48.290;11.460;2023-02-10T09:16:17;-1.40;99.90
36322;DHT22;23564;48.290;11.460;2023-02-10T09:18:43;-1.40;99.90
36322;DHT22;23564;48.290;11.460;2023-02-10T09:21:09;-1.30;99.90
36322;DHT22;23564;48.290;11.460;2023-02-10T09:23:35;-1.30;99.90
36322;DHT22;23564;48.290;11.460;2023-02-10T09:26:01;-1.20;99.90
36322;DHT22;23564;48.290;11.460;2023-02-10T09:28:27;-1.20;99.90
36322;DHT22;23564;48.290;11.460;2023-02-10T09:30:53;-1.10;44.80
36322;DHT22;23564;48.290;11.460;2023-02-10T09:33:18;-1.00;51.40
36322;DHT22;23564;48.290;11.460;2023-02-10T09:35:44;-0.90;1.00
36322;DHT22;23564;48.290;11.460;2023-02-10T09:38:11;-0.80;1.00
36322;DHT22;23564;48.290;11.460;2023-02-10T09:47:12;-0.70;99.90
36322;DHT22;23564;48.290;11.460;2023-02-10T09:54:29;-0.50;99.90
36322;DHT22;23564;48.290;11.460;2023-02-10T09:57:03;-0.50;99.90
36322;DHT22;23564;48.290;11.460;2023-02-10T09:59:32;-0.50;99.90
36322;DHT22;23564;48.290;11.460;2023-02-10T10:02:03;-0.40;99.90
36322;DHT22;23564;48.290;11.460;2023-02-10T10:04:33;-0.40;99.90
36322;DHT22;23564;48.290;11.460;2023-02-10T10:07:34;-0.30;99.90
36322;DHT22;23564;48.290;11.460;2023-02-10T10:12:43;-0.20;99.90
36322;DHT22;23564;48.290;11.460;2023-02-10T10:15:16;-0.10;99.90
36322;DHT22;23564;48.290;11.460;2023-02-10T10:20:36;0.00;85.20
36322;DHT22;23564;48.290;11.460;2023-02-10T10:23:11;0.10;74.80
36322;DHT22;23564;48.290;11.460;2023-02-10T10:31:18;0.20;99.90
36322;DHT22;23564;48.290;11.460;2023-02-10T10:36:18;0.20;97.40
36322;DHT22;23564;48.290;11.460;2023-02-10T10:38:51;0.30;1.00
36322;DHT22;23564;48.290;11.460;2023-02-10T10:41:17;0.40;99.90
36322;DHT22;23564;48.290;11.460;2023-02-10T10:43:52;0.50;1.00
36322;DHT22;23564;48.290;11.460;2023-02-10T10:46:38;0.50;1.00
36322;DHT22;23564;48.290;11.460;2023-02-10T10:49:06;0.50;99.90
36322;DHT22;23564;48.290;11.460;2023-02-10T10:51:32;0.60;99.90
36322;DHT22;23564;48.290;11.460;2023-02-10T10:54:00;0.60;99.90
36322;DHT22;23564;48.290;11.460;2023-02-10T10:56:48;0.70;99.90
36322;DHT22;23564;48.290;11.460;2023-02-10T10:59:31;0.60;99.90
36322;DHT22;23564;48.290;11.460;2023-02-10T11:01:58;0.70;52.70
36322;DHT22;23564;48.290;11.460;2023-02-10T11:04:25;0.70;1.00
36322;DHT22;23564;48.290;11.460;2023-02-10T11:06:53;0.70;1.00
36322;DHT22;23564;48.290;11.460;2023-02-10T11:09:32;0.70;99.90
36322;DHT22;23564;48.290;11.460;2023-02-10T11:12:28;0.70;99.90
36322;DHT22;23564;48.290;11.460;2023-02-10T11:14:55;0.80;99.90
36322;DHT22;23564;48.290;11.460;2023-02-10T11:17:37;0.90;66.90
36322;DHT22;23564;48.290;11.460;2023-02-10T11:22:39;1.00;99.90
36322;DHT22;23564;48.290;11.460;2023-02-10T11:25:28;1.10;99.90
36322;DHT22;23564;48.290;11.460;2023-02-10T11:27:54;1.10;99.90
36322;DHT22;23564;48.290;11.460;2023-02-10T11:30:35;1.10;99.90
36322;DHT22;23564;48.290;11.460;2023-02-10T11:33:03;1.20;1.00
36322;DHT22;23564;48.290;11.460;2023-02-10T11:35:30;1.20;1.00
36322;DHT22;23564;48.290;11.460;2023-02-10T11:38:00;1.20;99.90
36322;DHT22;23564;48.290;11.460;2023-02-10T11:40:30;1.30;99.90
36322;DHT22;23564;48.290;11.460;2023-02-10T11:42:58;1.30;91.50
36322;DHT22;23564;48.290;11.460;2023-02-10T11:45:29;1.30;85.60
36322;DHT22;23564;48.290;11.460;2023-02-10T11:48:10;1.30;1.00
36322;DHT22;23564;48.290;11.460;2023-02-10T11:50:38;1.40;99.90
36322;DHT22;23564;48.290;11.460;2023-02-10T11:53:03;1.40;99.90
36322;DHT22;23564;48.290;11.460;2023-02-10T11:55:46;1.50;78.40
36322;DHT22;23564;48.290;11.460;2023-02-10T11:58:45;1.50;99.90
36322;DHT22;23564;48.290;11.460;2023-02-10T12:04:40;1.60;1.00
36322;DHT22;23564;48.290;11.460;2023-02-10T12:07:25;1.60;14.30
36322;DHT22;23564;48.290;11.460;2023-02-10T12:10:18;1.70;96.60
36322;DHT22;23564;48.290;11.460;2023-02-10T12:18:37;1.90;99.90
36322;DHT22;23564;48.290;11.460;2023-02-10T12:21:24;1.90;99.90
36322;DHT22;23564;48.290;11.460;2023-02-10T12:27:10;2.10;99.90
36322;DHT22;23564;48.290;11.460;2023-02-10T12:32:26;2.20;50.90
36322;DHT22;23564;48.290;11.460;2023-02-10T12:43:34;2.40;1.00
36322;DHT22;23564;48.290;11.460;2023-02-10T12:46:23;2.40;1.00
36322;DHT22;23564;48.290;11.460;2023-02-10T12:49:00;2.40;1.00
36322;DHT22;23564;48.290;11.460;2023-02-10T12:52:04;2.40;1.00
36322;DHT22;23564;48.290;11.460;2023-02-10T12:54:35;2.40;1.00
36322;DHT22;23564;48.290;11.460;2023-02-10T12:57:24;2.50;1.00
36322;DHT22;23564;48.290;11.460;2023-02-10T13:00:08;2.60;1.00
36322;DHT22;23564;48.290;11.460;2023-02-10T13:02:44;2.60;1.00
36322;DHT22;23564;48.290;11.460;2023-02-10T13:05:17;2.60;1.00
36322;DHT22;23564;48.290;11.460;2023-02-10T13:07:55;2.70;1.00
36322;DHT22;23564;48.290;11.460;2023-02-10T13:10:27;2.70;1.00
36322;DHT22;23564;48.290;11.460;2023-02-10T13:13:00;2.70;1.00
36322;DHT22;23564;48.290;11.460;2023-02-10T13:16:18;2.70;1.00
36322;DHT22;23564;48.290;11.460;2023-02-10T13:18:24;2.70;1.00
36322;DHT22;23564;48.290;11.460;2023-02-10T13:21:11;2.70;1.00
36322;DHT22;23564;48.290;11.460;2023-02-10T13:23:57;2.70;99.90
36322;DHT22;23564;48.290;11.460;2023-02-10T13:26:53;2.70;99.90
36322;DHT22;23564;48.290;11.460;2023-02-10T13:30:05;2.70;99.90
36322;DHT22;23564;48.290;11.460;2023-02-10T13:34:56;2.70;99.90
36322;DHT22;23564;48.290;11.460;2023-02-10T13:37:41;2.80;99.90
36322;DHT22;23564;48.290;11.460;2023-02-10T13:40:23;2.80;99.90
36322;DHT22;23564;48.290;11.460;2023-02-10T13:43:03;2.70;99.90
36322;DHT22;23564;48.290;11.460;2023-02-10T13:45:33;2.80;99.90
36322;DHT22;23564;48.290;11.460;2023-02-10T13:48:25;2.80;99.90
36322;DHT22;23564;48.290;11.460;2023-02-10T13:50:58;2.70;99.90
36322;DHT22;23564;48.290;11.460;2023-02-10T13:58:32;2.80;99.90
36322;DHT22;23564;48.290;11.460;2023-02-10T14:00:58;2.90;99.90
36322;DHT22;23564;48.290;11.460;2023-02-10T14:03:32;2.90;61.90
36322;DHT22;23564;48.290;11.460;2023-02-10T14:06:06;3.00;30.00
36322;DHT22;23564;48.290;11.460;2023-02-10T14:08:35;3.00;19.30
36322;DHT22;23564;48.290;11.460;2023-02-10T14:11:05;3.00;15.30
36322;DHT22;23564;48.290;11.460;2023-02-10T14:13:34;2.90;1.00
36322;DHT22;23564;48.290;11.460;2023-02-10T14:16:06;2.80;1.00
36322;DHT22;23564;48.290;11.460;2023-02-10T14:18:35;2.80;1.00
36322;DHT22;23564;48.290;11.460;2023-02-10T14:21:04;2.80;1.00
36322;DHT22;23564;48.290;11.460;2023-02-10T14:23:35;2.90;1.00
36322;DHT22;23564;48.290;11.460;2023-02-10T14:26:04;2.80;1.00
36322;DHT22;23564;48.290;11.460;2023-02-10T14:28:42;2.80;13.60
36322;DHT22;23564;48.290;11.460;2023-02-10T14:31:15;2.80;1.00
36322;DHT22;23564;48.290;11.460;2023-02-10T14:33:55;2.80;1.00
36322;DHT22;23564;48.290;11.460;2023-02-10T14:36:21;2.80;1.00
36322;DHT22;23564;48.290;11.460;2023-02-10T14:38:55;2.90;1.00
36322;DHT22;23564;48.290;11.460;2023-02-10T14:41:22;2.90;1.00
36322;DHT22;23564;48.290;11.460;2023-02-10T14:43:49;2.80;1.00
36322;DHT22;23564;48.290;11.460;2023-02-10T14:46:23;2.80;1.00
36322;DHT22;23564;48.290;11.460;2023-02-10T14:49:11;2.80;1.00
36322;DHT22;23564;48.290;11.460;2023-02-10T14:51:43;2.80;1.00
36322;DHT22;23564;48.290;11.460;2023-02-10T14:54:14;2.70;1.00
36322;DHT22;23564;48.290;11.460;2023-02-10T14:56:49;2.70;1.00
36322;DHT22;23564;48.290;11.460;2023-02-10T14:59:30;2.80;19.20
36322;DHT22;23564;48.290;11.460;2023-02-10T15:02:03;2.90;28.30
36322;DHT22;23564;48.290;11.460;2023-02-10T15:04:29;2.90;21.80
36322;DHT22;23564;48.290;11.460;2023-02-10T15:06:56;2.90;16.50
36322;DHT22;23564;48.290;11.460;2023-02-10T15:09:29;2.90;8.00
36322;DHT22;23564;48.290;11.460;2023-02-10T15:12:08;2.80;20.30
36322;DHT22;23564;48.290;11.460;2023-02-10T15:17:39;2.70;1.00
36322;DHT22;23564;48.290;11.460;2023-02-10T15:23:24;2.70;4.00
36322;DHT22;23564;48.290;11.460;2023-02-10T15:25:36;2.70;30.00
36322;DHT22;23564;48.290;11.460;2023-02-10T15:30:58;2.60;41.40
36322;DHT22;23564;48.290;11.460;2023-02-10T15:33:40;2.60;55.50
36322;DHT22;23564;48.290;11.460;2023-02-10T15:38:41;2.50;48.50
36322;DHT22;23564;48.290;11.460;2023-02-10T15:41:26;2.50;27.40
36322;DHT22;23564;48.290;11.460;2023-02-10T15:43:52;2.50;16.70
36322;DHT22;23564;48.290;11.460;2023-02-10T15:46:18;2.40;1.00
36322;DHT22;23564;48.290;11.460;2023-02-10T15:48:53;2.40;1.00
36322;DHT22;23564;48.290;11.460;2023-02-10T15:51:33;2.30;1.00
36322;DHT22;23564;48.290;11.460;2023-02-10T15:54:01;2.30;1.00
36322;DHT22;23564;48.290;11.460;2023-02-10T15:56:28;2.30;1.00
36322;DHT22;23564;48.290;11.460;2023-02-10T15:58:54;2.20;1.00
36322;DHT22;23564;48.290;11.460;2023-02-10T16:01:20;2.10;1.00
36322;DHT22;23564;48.290;11.460;2023-02-10T16:03:45;2.10;1.00
36322;DHT22;23564;48.290;11.460;2023-02-10T16:06:15;2.00;1.00
36322;DHT22;23564;48.290;11.460;2023-02-10T16:08:42;1.90;1.00
36322;DHT22;23564;48.290;11.460;2023-02-10T16:11:11;1.90;1.00
36322;DHT22;23564;48.290;11.460;2023-02-10T16:13:37;1.80;6.90
36322;DHT22;23564;48.290;11.460;2023-02-10T16:16:03;1.70;19.50
36322;DHT22;23564;48.290;11.460;2023-02-10T16:18:30;1.70;31.30
36322;DHT22;23564;48.290;11.460;2023-02-10T16:20:55;1.60;46.60
36322;DHT22;23564;48.290;11.460;2023-02-10T16:23:21;1.50;65.30
36322;DHT22;23564;48.290;11.460;2023-02-10T16:25:47;1.30;68.80
36322;DHT22;23564;48.290;11.460;2023-02-10T16:28:18;1.20;91.70
36322;DHT22;23564;48.290;11.460;2023-02-10T16:30:44;1.10;99.90
36322;DHT22;23564;48.290;11.460;2023-02-10T16:33:09;0.90;99.90
36322;DHT22;23564;48.290;11.460;2023-02-10T16:35:35;0.80;99.90
36322;DHT22;23564;48.290;11.460;2023-02-10T16:38:01;0.70;23.80
36322;DHT22;23564;48.290;11.460;2023-02-10T16:40:32;0.60;99.90
36322;DHT22;23564;48.290;11.460;2023-02-10T16:42:58;0.50;1.20
36322;DHT22;23564;48.290;11.460;2023-02-10T16:45:25;0.40;99.90
36322;DHT22;23564;48.290;11.460;2023-02-10T16:47:52;0.30;1.70
36322;DHT22;23564;48.290;11.460;2023-02-10T16:50:37;0.30;99.90
36322;DHT22;23564;48.290;11.460;2023-02-10T16:53:04;0.30;1.00
36322;DHT22;23564;48.290;11.460;2023-02-10T16:55:31;0.30;46.30
36322;DHT22;23564;48.290;11.460;2023-02-10T16:57:57;0.30;99.90
36322;DHT22;23564;48.290;11.460;2023-02-10T17:00:23;0.30;99.90